sensor_id;sensor_type;location;lat;lon;timestamp;pressure;altitude;pressure_sealevel;temperature;humidity
18167;BME280;9208;42.688;23.404;2022-07-22T00:00:48;95414.13;;;24.04;62.30
18167;BME280;9208;42.688;23.404;2022-07-22T00:03:13;95420.84;;;24.01;62.63
18167;BME280;9208;42.688;23.404;2022-07-22T00:05:39;95435.44;;;23.92;63.17
18167;BME280;9208;42.688;23.404;2022-07-22T00:08:04;95447.38;;;23.85;63.38
18167;BME280;9208;42.688;23.404;2022-07-22T00:10:33;95461.97;;;23.76;63.84
18167;BME280;9208;42.688;23.404;2022-07-22T00:12:58;95464.41;;;23.72;63.95
18167;BME280;9208;42.688;23.404;2022-07-22T00:15:24;95475.44;;;23.63;63.79
18167;BME280;9208;42.688;23.404;2022-07-22T00:17:49;95486.66;;;23.63;63.41
18167;BME280;9208;42.688;23.404;2022-07-22T00:20:15;95494.47;;;23.57;63.72
18167;BME280;9208;42.688;23.404;2022-07-22T00:22:40;95502.88;;;23.49;63.98
18167;BME280;9208;42.688;23.404;2022-07-22T00:25:06;95509.81;;;23.48;64.00
18167;BME280;9208;42.688;23.404;2022-07-22T00:27:32;95517.47;;;23.25;64.98
18167;BME280;9208;42.688;23.404;2022-07-22T00:29:57;95513.19;;;23.24;64.94
18167;BME280;9208;42.688;23.404;2022-07-22T00:32:23;95519.47;;;23.10;65.21
18167;BME280;9208;42.688;23.404;2022-07-22T00:34:48;95517.63;;;23.05;65.28
18167;BME280;9208;42.688;23.404;2022-07-22T00:37:14;95528.25;;;23.06;64.96
18167;BME280;9208;42.688;23.404;2022-07-22T00:39:39;95526.00;;;23.05;64.77
18167;BME280;9208;42.688;23.404;2022-07-22T00:42:05;95520.59;;;22.99;65.27
18167;BME280;9208;42.688;23.404;2022-07-22T00:44:30;95531.22;;;23.01;65.53
18167;BME280;9208;42.688;23.404;2022-07-22T00:46:56;95531.22;;;22.93;65.86
18167;BME280;9208;42.688;23.404;2022-07-22T00:49:21;95529.88;;;22.72;67.76
18167;BME280;9208;42.688;23.404;2022-07-22T00:51:47;95526.88;;;22.62;68.81
18167;BME280;9208;42.688;23.404;2022-07-22T00:54:13;95527.59;;;22.55;69.43
18167;BME280;9208;42.688;23.404;2022-07-22T00:56:39;95523.84;;;22.45;70.39
18167;BME280;9208;42.688;23.404;2022-07-22T00:59:08;95523.44;;;22.41;70.98
18167;BME280;9208;42.688;23.404;2022-07-22T01:01:34;95525.09;;;22.37;71.46
18167;BME280;9208;42.688;23.404;2022-07-22T01:04:00;95522.28;;;22.29;71.84
18167;BME280;9208;42.688;23.404;2022-07-22T01:06:25;95528.06;;;22.31;71.86
18167;BME280;9208;42.688;23.404;2022-07-22T01:08:51;95524.88;;;22.27;71.90
18167;BME280;9208;42.688;23.404;2022-07-22T01:11:18;95530.81;;;22.24;72.47
18167;BME280;9208;42.688;23.404;2022-07-22T01:13:45;95530.25;;;22.18;73.03
18167;BME280;9208;42.688;23.404;2022-07-22T01:16:11;95523.38;;;22.19;72.99
18167;BME280;9208;42.688;23.404;2022-07-22T01:18:38;95525.94;;;22.17;73.04
18167;BME280;9208;42.688;23.404;2022-07-22T01:21:05;95526.31;;;22.13;73.31
18167;BME280;9208;42.688;23.404;2022-07-22T01:23:31;95522.22;;;22.14;73.28
18167;BME280;9208;42.688;23.404;2022-07-22T01:25:57;95528.41;;;22.20;73.05
18167;BME280;9208;42.688;23.404;2022-07-22T01:28:22;95526.34;;;22.21;73.21
18167;BME280;9208;42.688;23.404;2022-07-22T01:30:48;95528.22;;;22.26;73.08
18167;BME280;9208;42.688;23.404;2022-07-22T01:33:16;95525.81;;;22.30;72.18
18167;BME280;9208;42.688;23.404;2022-07-22T01:35:42;95536.28;;;22.37;71.53
18167;BME280;9208;42.688;23.404;2022-07-22T01:38:07;95526.94;;;22.27;72.16
18167;BME280;9208;42.688;23.404;2022-07-22T01:40:33;95529.34;;;22.23;72.66
18167;BME280;9208;42.688;23.404;2022-07-22T01:42:58;95534.34;;;22.24;72.85
18167;BME280;9208;42.688;23.404;2022-07-22T01:45:24;95527.63;;;22.20;73.20
18167;BME280;9208;42.688;23.404;2022-07-22T01:47:50;95531.53;;;22.17;73.05
18167;BME280;9208;42.688;23.404;2022-07-22T01:50:15;95531.50;;;22.09;73.65
18167;BME280;9208;42.688;23.404;2022-07-22T01:52:41;95531.09;;;22.05;73.62
18167;BME280;9208;42.688;23.404;2022-07-22T01:55:08;95525.53;;;22.05;73.80
18167;BME280;9208;42.688;23.404;2022-07-22T01:57:35;95529.22;;;22.00;73.81
18167;BME280;9208;42.688;23.404;2022-07-22T02:00:00;95535.56;;;22.01;73.96
18167;BME280;9208;42.688;23.404;2022-07-22T02:02:26;95533.50;;;22.01;74.00
18167;BME280;9208;42.688;23.404;2022-07-22T02:04:51;95533.09;;;21.97;74.11
18167;BME280;9208;42.688;23.404;2022-07-22T02:07:16;95534.09;;;22.00;73.90
18167;BME280;9208;42.688;23.404;2022-07-22T02:09:45;95543.00;;;21.98;74.32
18167;BME280;9208;42.688;23.404;2022-07-22T02:12:10;95543.41;;;22.02;74.13
18167;BME280;9208;42.688;23.404;2022-07-22T02:14:36;95543.75;;;22.06;73.92
18167;BME280;9208;42.688;23.404;2022-07-22T02:17:01;95543.44;;;22.10;73.84
18167;BME280;9208;42.688;23.404;2022-07-22T02:19:27;95545.31;;;22.15;73.65
18167;BME280;9208;42.688;23.404;2022-07-22T02:21:52;95544.41;;;22.20;73.16
18167;BME280;9208;42.688;23.404;2022-07-22T02:24:18;95552.81;;;22.27;72.80
18167;BME280;9208;42.688;23.404;2022-07-22T02:26:46;95554.69;;;22.32;72.44
18167;BME280;9208;42.688;23.404;2022-07-22T02:29:12;95548.69;;;22.28;73.01
18167;BME280;9208;42.688;23.404;2022-07-22T02:31:37;95534.31;;;22.17;73.23
18167;BME280;9208;42.688;23.404;2022-07-22T02:34:03;95548.63;;;22.06;74.27
18167;BME280;9208;42.688;23.404;2022-07-22T02:36:28;95540.00;;;21.96;75.11
18167;BME280;9208;42.688;23.404;2022-07-22T02:38:53;95546.69;;;21.93;75.83
18167;BME280;9208;42.688;23.404;2022-07-22T02:41:19;95546.59;;;21.78;76.59
18167;BME280;9208;42.688;23.404;2022-07-22T02:43:44;95542.03;;;21.68;78.52
18167;BME280;9208;42.688;23.404;2022-07-22T02:46:12;95541.63;;;21.64;79.00
18167;BME280;9208;42.688;23.404;2022-07-22T02:48:38;95549.00;;;21.54;79.78
18167;BME280;9208;42.688;23.404;2022-07-22T02:51:06;95546.28;;;21.61;79.37
18167;BME280;9208;42.688;23.404;2022-07-22T02:53:31;95537.16;;;21.61;79.74
18167;BME280;9208;42.688;23.404;2022-07-22T02:55:57;95542.53;;;21.59;80.38
18167;BME280;9208;42.688;23.404;2022-07-22T02:58:22;95542.53;;;21.59;80.44
18167;BME280;9208;42.688;23.404;2022-07-22T03:00:48;95556.69;;;21.61;80.66
18167;BME280;9208;42.688;23.404;2022-07-22T03:03:14;95548.09;;;21.59;80.80
18167;BME280;9208;42.688;23.404;2022-07-22T03:05:39;95549.81;;;21.62;80.35
18167;BME280;9208;42.688;23.404;2022-07-22T03:08:05;95551.63;;;21.52;81.02
18167;BME280;9208;42.688;23.404;2022-07-22T03:10:30;95551.63;;;21.52;81.42
18167;BME280;9208;42.688;23.404;2022-07-22T03:12:55;95550.56;;;21.62;80.73
18167;BME280;9208;42.688;23.404;2022-07-22T03:15:21;95551.66;;;21.59;81.25
18167;BME280;9208;42.688;23.404;2022-07-22T03:17:46;95551.53;;;21.65;80.81
18167;BME280;9208;42.688;23.404;2022-07-22T03:20:12;95545.72;;;21.63;81.04
18167;BME280;9208;42.688;23.404;2022-07-22T03:22:38;95552.06;;;21.63;81.16
18167;BME280;9208;42.688;23.404;2022-07-22T03:25:03;95547.94;;;21.57;81.62
18167;BME280;9208;42.688;23.404;2022-07-22T03:27:29;95546.28;;;21.61;81.26
18167;BME280;9208;42.688;23.404;2022-07-22T03:29:55;95554.50;;;21.67;80.79
18167;BME280;9208;42.688;23.404;2022-07-22T03:32:20;95551.38;;;21.70;79.95
18167;BME280;9208;42.688;23.404;2022-07-22T03:34:46;95560.84;;;21.67;79.33
18167;BME280;9208;42.688;23.404;2022-07-22T03:37:11;95571.38;;;21.61;79.81
18167;BME280;9208;42.688;23.404;2022-07-22T03:39:37;95558.59;;;21.66;79.31
18167;BME280;9208;42.688;23.404;2022-07-22T03:42:03;95562.75;;;21.72;78.37
18167;BME280;9208;42.688;23.404;2022-07-22T03:44:29;95556.28;;;21.77;78.31
18167;BME280;9208;42.688;23.404;2022-07-22T03:46:54;95564.06;;;21.71;78.57
18167;BME280;9208;42.688;23.404;2022-07-22T03:49:19;95569.28;;;21.75;78.42
18167;BME280;9208;42.688;23.404;2022-07-22T03:51:45;95568.34;;;21.72;78.52
18167;BME280;9208;42.688;23.404;2022-07-22T03:54:11;95569.28;;;21.75;78.20
18167;BME280;9208;42.688;23.404;2022-07-22T03:56:36;95573.69;;;21.70;78.51
18167;BME280;9208;42.688;23.404;2022-07-22T03:59:02;95571.13;;;21.72;78.05
18167;BME280;9208;42.688;23.404;2022-07-22T04:01:27;95578.19;;;21.73;77.41
18167;BME280;9208;42.688;23.404;2022-07-22T04:03:53;95578.59;;;21.77;77.01
18167;BME280;9208;42.688;23.404;2022-07-22T04:06:18;95584.94;;;21.78;76.62
18167;BME280;9208;42.688;23.404;2022-07-22T04:08:44;95578.59;;;21.77;75.94
18167;BME280;9208;42.688;23.404;2022-07-22T04:11:12;95579.19;;;21.83;75.28
18167;BME280;9208;42.688;23.404;2022-07-22T04:13:37;95579.00;;;21.81;75.21
18167;BME280;9208;42.688;23.404;2022-07-22T04:16:03;95587.00;;;21.85;75.00
18167;BME280;9208;42.688;23.404;2022-07-22T04:18:31;95589.13;;;21.92;74.45
18167;BME280;9208;42.688;23.404;2022-07-22T04:20:57;95591.00;;;21.97;73.53
18167;BME280;9208;42.688;23.404;2022-07-22T04:23:22;95582.28;;;22.00;73.08
18167;BME280;9208;42.688;23.404;2022-07-22T04:25:48;95583.59;;;22.07;72.50
18167;BME280;9208;42.688;23.404;2022-07-22T04:28:13;95589.78;;;22.13;72.35
18167;BME280;9208;42.688;23.404;2022-07-22T04:30:39;95598.00;;;22.18;72.44
18167;BME280;9208;42.688;23.404;2022-07-22T04:33:04;95591.13;;;22.19;72.60
18167;BME280;9208;42.688;23.404;2022-07-22T04:35:32;95599.72;;;22.21;72.44
18167;BME280;9208;42.688;23.404;2022-07-22T04:37:58;95604.03;;;22.30;72.05
18167;BME280;9208;42.688;23.404;2022-07-22T04:40:23;95606.38;;;22.18;71.84
18167;BME280;9208;42.688;23.404;2022-07-22T04:42:49;95605.31;;;22.29;71.55
18167;BME280;9208;42.688;23.404;2022-07-22T04:45:15;95599.72;;;22.21;72.39
18167;BME280;9208;42.688;23.404;2022-07-22T04:47:40;95605.47;;;22.23;72.34
18167;BME280;9208;42.688;23.404;2022-07-22T04:50:06;95604.94;;;22.25;72.75
18167;BME280;9208;42.688;23.404;2022-07-22T04:52:32;95608.13;;;22.29;72.80
18167;BME280;9208;42.688;23.404;2022-07-22T04:54:57;95603.50;;;22.39;72.40
18167;BME280;9208;42.688;23.404;2022-07-22T04:57:24;95611.41;;;22.55;71.83
18167;BME280;9208;42.688;23.404;2022-07-22T04:59:51;95609.63;;;22.65;70.51
18167;BME280;9208;42.688;23.404;2022-07-22T05:02:16;95615.78;;;22.79;69.72
18167;BME280;9208;42.688;23.404;2022-07-22T05:04:42;95622.19;;;22.94;69.37
18167;BME280;9208;42.688;23.404;2022-07-22T05:07:07;95612.16;;;23.06;68.48
18167;BME280;9208;42.688;23.404;2022-07-22T05:09:33;95614.59;;;23.17;67.22
18167;BME280;9208;42.688;23.404;2022-07-22T05:11:58;95621.34;;;23.29;66.47
18167;BME280;9208;42.688;23.404;2022-07-22T05:14:24;95615.59;;;23.42;65.52
18167;BME280;9208;42.688;23.404;2022-07-22T05:16:52;95620.25;;;23.47;64.99
18167;BME280;9208;42.688;23.404;2022-07-22T05:19:17;95625.09;;;23.62;64.41
18167;BME280;9208;42.688;23.404;2022-07-22T05:21:43;95611.84;;;23.70;64.33
18167;BME280;9208;42.688;23.404;2022-07-22T05:24:08;95620.59;;;23.81;64.60
18167;BME280;9208;42.688;23.404;2022-07-22T05:26:34;95624.16;;;23.89;64.81
18167;BME280;9208;42.688;23.404;2022-07-22T05:28:59;95619.69;;;24.01;64.59
18167;BME280;9208;42.688;23.404;2022-07-22T05:31:24;95621.72;;;24.08;63.35
18167;BME280;9208;42.688;23.404;2022-07-22T05:33:50;95628.25;;;24.18;62.90
18167;BME280;9208;42.688;23.404;2022-07-22T05:36:16;95630.09;;;24.31;62.69
18167;BME280;9208;42.688;23.404;2022-07-22T05:38:42;95623.91;;;24.40;62.78
18167;BME280;9208;42.688;23.404;2022-07-22T05:41:07;95624.97;;;24.44;62.55
18167;BME280;9208;42.688;23.404;2022-07-22T05:43:33;95628.72;;;24.54;61.51
18167;BME280;9208;42.688;23.404;2022-07-22T05:45:58;95622.53;;;24.48;61.86
18167;BME280;9208;42.688;23.404;2022-07-22T05:48:24;95625.16;;;24.54;61.69
18167;BME280;9208;42.688;23.404;2022-07-22T05:50:49;95627.22;;;24.61;60.64
18167;BME280;9208;42.688;23.404;2022-07-22T05:53:15;95640.09;;;24.64;59.37
18167;BME280;9208;42.688;23.404;2022-07-22T05:55:40;95637.03;;;24.77;59.12
18167;BME280;9208;42.688;23.404;2022-07-22T05:58:06;95639.09;;;24.84;58.94
18167;BME280;9208;42.688;23.404;2022-07-22T06:00:31;95628.38;;;24.90;58.58
18167;BME280;9208;42.688;23.404;2022-07-22T06:02:57;95638.25;;;24.98;57.50
18167;BME280;9208;42.688;23.404;2022-07-22T06:05:22;95642.00;;;25.01;56.56
18167;BME280;9208;42.688;23.404;2022-07-22T06:07:48;95637.69;;;25.00;56.61
18167;BME280;9208;42.688;23.404;2022-07-22T06:10:14;95630.19;;;25.02;56.53
18167;BME280;9208;42.688;23.404;2022-07-22T06:12:39;95632.03;;;25.07;56.32
18167;BME280;9208;42.688;23.404;2022-07-22T06:15:05;95643.59;;;25.11;56.03
18167;BME280;9208;42.688;23.404;2022-07-22T06:17:31;95644.31;;;25.19;55.81
18167;BME280;9208;42.688;23.404;2022-07-22T06:19:57;95645.06;;;25.27;55.32
18167;BME280;9208;42.688;23.404;2022-07-22T06:22:22;95642.94;;;25.35;55.05
18167;BME280;9208;42.688;23.404;2022-07-22T06:24:48;95653.72;;;25.46;54.84
18167;BME280;9208;42.688;23.404;2022-07-22T06:27:14;95648.44;;;25.50;55.25
18167;BME280;9208;42.688;23.404;2022-07-22T06:29:39;95643.59;;;25.51;55.05
18167;BME280;9208;42.688;23.404;2022-07-22T06:32:06;95641.13;;;25.55;54.73
18167;BME280;9208;42.688;23.404;2022-07-22T06:34:32;95644.03;;;25.64;54.82
18167;BME280;9208;42.688;23.404;2022-07-22T06:36:58;95639.13;;;25.73;54.36
18167;BME280;9208;42.688;23.404;2022-07-22T06:39:23;95647.81;;;25.84;54.23
18167;BME280;9208;42.688;23.404;2022-07-22T06:41:49;95645.16;;;25.94;53.97
18167;BME280;9208;42.688;23.404;2022-07-22T06:44:14;95652.53;;;26.06;53.48
18167;BME280;9208;42.688;23.404;2022-07-22T06:46:40;95649.97;;;26.18;53.32
18167;BME280;9208;42.688;23.404;2022-07-22T06:49:05;95643.38;;;26.23;53.27
18167;BME280;9208;42.688;23.404;2022-07-22T06:51:32;95641.81;;;26.29;53.41
18167;BME280;9208;42.688;23.404;2022-07-22T06:53:57;95641.00;;;26.36;53.11
18167;BME280;9208;42.688;23.404;2022-07-22T06:56:23;95642.06;;;26.41;53.15
18167;BME280;9208;42.688;23.404;2022-07-22T06:58:48;95644.06;;;26.48;52.95
18167;BME280;9208;42.688;23.404;2022-07-22T07:01:13;95644.22;;;26.50;52.52
18167;BME280;9208;42.688;23.404;2022-07-22T07:03:39;95647.88;;;26.60;52.49
18167;BME280;9208;42.688;23.404;2022-07-22T07:06:07;95653.84;;;26.64;52.18
18167;BME280;9208;42.688;23.404;2022-07-22T07:08:33;95656.16;;;26.75;51.87
18167;BME280;9208;42.688;23.404;2022-07-22T07:10:58;95667.41;;;26.75;50.61
18167;BME280;9208;42.688;23.404;2022-07-22T07:13:24;95678.56;;;26.82;49.94
18167;BME280;9208;42.688;23.404;2022-07-22T07:15:49;95666.06;;;26.93;50.15
18167;BME280;9208;42.688;23.404;2022-07-22T07:18:15;95662.41;;;27.00;50.19
18167;BME280;9208;42.688;23.404;2022-07-22T07:20:40;95669.00;;;27.12;49.71
18167;BME280;9208;42.688;23.404;2022-07-22T07:23:06;95670.00;;;27.24;49.16
18167;BME280;9208;42.688;23.404;2022-07-22T07:25:32;95668.56;;;27.32;48.75
18167;BME280;9208;42.688;23.404;2022-07-22T07:27:57;95677.81;;;27.42;48.40
18167;BME280;9208;42.688;23.404;2022-07-22T07:30:23;95694.78;;;27.52;47.13
18167;BME280;9208;42.688;23.404;2022-07-22T07:32:48;95710.81;;;27.59;45.88
18167;BME280;9208;42.688;23.404;2022-07-22T07:35:14;95706.81;;;27.62;45.44
18167;BME280;9208;42.688;23.404;2022-07-22T07:37:39;95714.72;;;27.73;44.83
18167;BME280;9208;42.688;23.404;2022-07-22T07:40:05;95711.06;;;27.80;45.21
18167;BME280;9208;42.688;23.404;2022-07-22T07:42:31;95712.19;;;27.94;45.24
18167;BME280;9208;42.688;23.404;2022-07-22T07:44:56;95714.31;;;28.03;44.25
18167;BME280;9208;42.688;23.404;2022-07-22T07:47:22;95733.78;;;28.08;43.66
18167;BME280;9208;42.688;23.404;2022-07-22T07:49:48;95729.06;;;28.20;44.10
18167;BME280;9208;42.688;23.404;2022-07-22T07:52:14;95719.16;;;28.29;44.08
18167;BME280;9208;42.688;23.404;2022-07-22T07:54:40;95725.00;;;28.40;44.06
18167;BME280;9208;42.688;23.404;2022-07-22T07:57:07;95728.56;;;28.50;43.33
18167;BME280;9208;42.688;23.404;2022-07-22T07:59:32;95731.88;;;28.66;42.77
18167;BME280;9208;42.688;23.404;2022-07-22T08:01:58;95739.78;;;28.77;42.68
18167;BME280;9208;42.688;23.404;2022-07-22T08:04:23;95726.41;;;28.87;43.24
18167;BME280;9208;42.688;23.404;2022-07-22T08:06:51;95740.50;;;28.96;42.47
18167;BME280;9208;42.688;23.404;2022-07-22T08:09:17;95745.59;;;29.07;42.24
18167;BME280;9208;42.688;23.404;2022-07-22T08:11:42;95746.03;;;29.13;42.35
18167;BME280;9208;42.688;23.404;2022-07-22T08:14:08;95754.53;;;29.23;41.44
18167;BME280;9208;42.688;23.404;2022-07-22T08:16:34;95743.38;;;29.25;42.06
18167;BME280;9208;42.688;23.404;2022-07-22T08:18:59;95744.56;;;29.31;41.68
18167;BME280;9208;42.688;23.404;2022-07-22T08:21:25;95750.94;;;29.41;41.70
18167;BME280;9208;42.688;23.404;2022-07-22T08:23:51;95750.78;;;29.49;41.38
18167;BME280;9208;42.688;23.404;2022-07-22T08:26:17;95761.97;;;29.56;40.86
18167;BME280;9208;42.688;23.404;2022-07-22T08:28:42;95758.38;;;29.65;40.75
18167;BME280;9208;42.688;23.404;2022-07-22T08:31:08;95764.75;;;29.75;40.57
18167;BME280;9208;42.688;23.404;2022-07-22T08:33:33;95771.69;;;29.84;39.36
18167;BME280;9208;42.688;23.404;2022-07-22T08:36:00;95788.94;;;29.88;38.80
18167;BME280;9208;42.688;23.404;2022-07-22T08:38:26;95785.22;;;29.95;38.47
18167;BME280;9208;42.688;23.404;2022-07-22T08:40:54;95792.66;;;30.00;38.28
18167;BME280;9208;42.688;23.404;2022-07-22T08:43:21;95799.34;;;30.04;37.94
18167;BME280;9208;42.688;23.404;2022-07-22T08:45:47;95794.72;;;30.09;37.99
18167;BME280;9208;42.688;23.404;2022-07-22T08:48:14;95795.47;;;30.09;37.60
18167;BME280;9208;42.688;23.404;2022-07-22T08:50:40;95808.84;;;30.18;37.22
18167;BME280;9208;42.688;23.404;2022-07-22T08:53:09;95808.69;;;30.26;37.33
18167;BME280;9208;42.688;23.404;2022-07-22T08:55:41;95809.38;;;30.36;37.12
18167;BME280;9208;42.688;23.404;2022-07-22T08:58:06;95815.91;;;30.48;36.59
18167;BME280;9208;42.688;23.404;2022-07-22T09:00:32;95812.88;;;30.55;36.42
18167;BME280;9208;42.688;23.404;2022-07-22T09:02:58;95828.19;;;30.62;36.35
18167;BME280;9208;42.688;23.404;2022-07-22T09:05:32;95817.59;;;30.72;36.26
18167;BME280;9208;42.688;23.404;2022-07-22T09:07:58;95822.44;;;30.81;36.40
18167;BME280;9208;42.688;23.404;2022-07-22T09:10:31;95810.06;;;30.86;36.13
18167;BME280;9208;42.688;23.404;2022-07-22T09:13:02;95824.28;;;30.97;36.21
18167;BME280;9208;42.688;23.404;2022-07-22T09:15:31;95832.72;;;31.07;36.20
18167;BME280;9208;42.688;23.404;2022-07-22T09:17:58;95831.19;;;31.15;35.84
18167;BME280;9208;42.688;23.404;2022-07-22T09:20:25;95824.72;;;31.24;36.17
18167;BME280;9208;42.688;23.404;2022-07-22T09:22:51;95830.06;;;31.30;35.52
18167;BME280;9208;42.688;23.404;2022-07-22T09:25:31;95837.88;;;31.41;35.07
18167;BME280;9208;42.688;23.404;2022-07-22T09:30:38;95854.34;;;31.54;34.41
18167;BME280;9208;42.688;23.404;2022-07-22T09:33:04;95846.09;;;31.58;34.45
18167;BME280;9208;42.688;23.404;2022-07-22T09:35:30;95848.09;;;31.67;34.51
18167;BME280;9208;42.688;23.404;2022-07-22T09:37:58;95839.75;;;31.69;34.21
18167;BME280;9208;42.688;23.404;2022-07-22T09:40:26;95852.09;;;31.73;33.99
18167;BME280;9208;42.688;23.404;2022-07-22T09:42:55;95860.41;;;31.81;33.76
18167;BME280;9208;42.688;23.404;2022-07-22T09:45:23;95852.44;;;31.89;33.66
18167;BME280;9208;42.688;23.404;2022-07-22T09:47:49;95860.59;;;31.94;33.45
18167;BME280;9208;42.688;23.404;2022-07-22T09:50:16;95859.59;;;32.01;33.35
18167;BME280;9208;42.688;23.404;2022-07-22T09:52:43;95853.75;;;32.09;33.52
18167;BME280;9208;42.688;23.404;2022-07-22T09:55:08;95855.31;;;32.12;33.46
18167;BME280;9208;42.688;23.404;2022-07-22T09:57:37;95845.47;;;32.13;33.32
18167;BME280;9208;42.688;23.404;2022-07-22T10:00:04;95848.19;;;32.22;33.12
18167;BME280;9208;42.688;23.404;2022-07-22T10:02:33;95853.06;;;32.32;32.80
18167;BME280;9208;42.688;23.404;2022-07-22T10:05:01;95854.06;;;32.36;32.84
18167;BME280;9208;42.688;23.404;2022-07-22T10:07:27;95853.34;;;32.47;32.79
18167;BME280;9208;42.688;23.404;2022-07-22T10:09:53;95850.25;;;32.55;32.80
18167;BME280;9208;42.688;23.404;2022-07-22T10:12:19;95844.22;;;32.60;33.25
18167;BME280;9208;42.688;23.404;2022-07-22T10:14:46;95851.50;;;32.63;32.69
18167;BME280;9208;42.688;23.404;2022-07-22T10:17:13;95853.25;;;32.68;32.43
18167;BME280;9208;42.688;23.404;2022-07-22T10:19:40;95848.78;;;32.77;32.47
18167;BME280;9208;42.688;23.404;2022-07-22T10:22:59;95854.50;;;32.88;32.22
18167;BME280;9208;42.688;23.404;2022-07-22T10:25:17;95854.75;;;32.92;32.00
18167;BME280;9208;42.688;23.404;2022-07-22T10:30:18;95855.84;;;32.99;32.03
18167;BME280;9208;42.688;23.404;2022-07-22T10:32:44;95840.53;;;33.04;32.03
18167;BME280;9208;42.688;23.404;2022-07-22T10:40:26;95853.81;;;33.47;31.57
18167;BME280;9208;42.688;23.404;2022-07-22T10:45:27;95854.91;;;33.54;31.36
18167;BME280;9208;42.688;23.404;2022-07-22T10:47:57;95848.72;;;33.57;31.11
18167;BME280;9208;42.688;23.404;2022-07-22T10:53:05;95862.00;;;33.30;30.72
18167;BME280;9208;42.688;23.404;2022-07-22T10:55:32;95848.91;;;33.25;30.69
18167;BME280;9208;42.688;23.404;2022-07-22T10:57:58;95860.38;;;33.27;30.74
18167;BME280;9208;42.688;23.404;2022-07-22T11:00:23;95854.84;;;33.29;31.16
18167;BME280;9208;42.688;23.404;2022-07-22T11:02:49;95845.94;;;33.34;30.95
18167;BME280;9208;42.688;23.404;2022-07-22T11:05:24;95859.75;;;33.40;30.74
18167;BME280;9208;42.688;23.404;2022-07-22T11:07:50;95860.75;;;33.44;30.40
18167;BME280;9208;42.688;23.404;2022-07-22T11:10:18;95860.38;;;33.38;30.48
18167;BME280;9208;42.688;23.404;2022-07-22T11:12:44;95855.97;;;33.35;30.38
18167;BME280;9208;42.688;23.404;2022-07-22T11:15:10;95851.25;;;33.40;30.37
18167;BME280;9208;42.688;23.404;2022-07-22T11:17:37;95846.53;;;33.44;30.38
18167;BME280;9208;42.688;23.404;2022-07-22T11:20:08;95850.34;;;33.49;30.19
18167;BME280;9208;42.688;23.404;2022-07-22T11:22:34;95851.63;;;33.34;30.38
18167;BME280;9208;42.688;23.404;2022-07-22T11:25:00;95849.53;;;33.35;30.24
18167;BME280;9208;42.688;23.404;2022-07-22T11:27:26;95856.06;;;33.37;29.88
18167;BME280;9208;42.688;23.404;2022-07-22T11:29:54;95841.63;;;33.33;29.88
18167;BME280;9208;42.688;23.404;2022-07-22T11:32:21;95848.75;;;33.46;30.04
18167;BME280;9208;42.688;23.404;2022-07-22T11:34:47;95843.94;;;33.48;30.59
18167;BME280;9208;42.688;23.404;2022-07-22T11:37:15;95839.69;;;33.61;31.01
18167;BME280;9208;42.688;23.404;2022-07-22T11:39:41;95839.75;;;33.74;30.34
18167;BME280;9208;42.688;23.404;2022-07-22T11:42:06;95843.63;;;33.67;30.22
18167;BME280;9208;42.688;23.404;2022-07-22T11:44:34;95836.56;;;33.68;29.98
18167;BME280;9208;42.688;23.404;2022-07-22T11:47:00;95838.88;;;33.83;30.11
18167;BME280;9208;42.688;23.404;2022-07-22T11:49:33;95831.78;;;33.96;30.30
18167;BME280;9208;42.688;23.404;2022-07-22T11:52:01;95834.63;;;33.96;29.90
18167;BME280;9208;42.688;23.404;2022-07-22T11:54:26;95831.38;;;34.01;29.91
18167;BME280;9208;42.688;23.404;2022-07-22T11:56:52;95835.81;;;34.04;29.59
18167;BME280;9208;42.688;23.404;2022-07-22T11:59:18;95843.97;;;34.10;29.41
18167;BME280;9208;42.688;23.404;2022-07-22T12:01:45;95844.34;;;34.04;29.22
18167;BME280;9208;42.688;23.404;2022-07-22T12:04:13;95849.41;;;34.06;29.84
18167;BME280;9208;42.688;23.404;2022-07-22T12:06:42;95847.94;;;34.05;29.49
18167;BME280;9208;42.688;23.404;2022-07-22T12:09:19;95840.88;;;34.06;29.42
18167;BME280;9208;42.688;23.404;2022-07-22T12:11:47;95837.47;;;33.96;29.87
18167;BME280;9208;42.688;23.404;2022-07-22T12:14:19;95837.19;;;34.03;29.84
18167;BME280;9208;42.688;23.404;2022-07-22T12:19:28;95836.75;;;34.09;29.44
18167;BME280;9208;42.688;23.404;2022-07-22T12:22:00;95824.97;;;34.14;29.44
18167;BME280;9208;42.688;23.404;2022-07-22T12:24:35;95852.66;;;34.25;27.74
18167;BME280;9208;42.688;23.404;2022-07-22T12:27:06;95877.16;;;34.30;26.40
18167;BME280;9208;42.688;23.404;2022-07-22T12:32:03;95861.47;;;34.18;28.24
18167;BME280;9208;42.688;23.404;2022-07-22T12:34:31;95856.84;;;34.24;27.64
18167;BME280;9208;42.688;23.404;2022-07-22T12:36:57;95857.56;;;34.11;27.67
18167;BME280;9208;42.688;23.404;2022-07-22T12:39:23;95862.16;;;34.05;27.17
18167;BME280;9208;42.688;23.404;2022-07-22T12:41:51;95873.13;;;34.10;26.65
18167;BME280;9208;42.688;23.404;2022-07-22T12:44:25;95885.78;;;34.07;26.73
18167;BME280;9208;42.688;23.404;2022-07-22T12:46:53;95872.69;;;34.02;27.10
18167;BME280;9208;42.688;23.404;2022-07-22T12:49:21;95864.28;;;34.04;27.00
18167;BME280;9208;42.688;23.404;2022-07-22T12:52:10;95871.09;;;33.99;27.02
18167;BME280;9208;42.688;23.404;2022-07-22T12:54:37;95876.44;;;33.93;26.65
18167;BME280;9208;42.688;23.404;2022-07-22T12:57:03;95887.09;;;33.93;25.90
18167;BME280;9208;42.688;23.404;2022-07-22T12:59:29;95897.44;;;34.00;24.91
18167;BME280;9208;42.688;23.404;2022-07-22T13:01:55;95906.72;;;34.00;24.94
18167;BME280;9208;42.688;23.404;2022-07-22T13:04:21;95907.84;;;33.95;25.04
18167;BME280;9208;42.688;23.404;2022-07-22T13:06:47;95919.34;;;33.97;24.66
18167;BME280;9208;42.688;23.404;2022-07-22T13:09:12;95925.25;;;34.01;24.30
18167;BME280;9208;42.688;23.404;2022-07-22T13:11:38;95918.56;;;34.08;24.48
18167;BME280;9208;42.688;23.404;2022-07-22T13:14:09;95923.34;;;34.17;24.35
18167;BME280;9208;42.688;23.404;2022-07-22T13:16:35;95913.22;;;34.14;24.78